Terminal Aerodrome Forecast
Issued by NWS

Home | Current Version | Previous Version | Text Only | Print | Product List | Glossary On
Versions: 1 2 3 4 5 6 7 8 9 10 11 12 13 14 15 16 17
000
FTUS41 KLWX 052333
TAFMTN
TAF
KMTN 052333Z 0600/0624 17004KT P6SM SCT020
     FM060900 VRB03KT 5SM BR SCT015 OVC045
     FM061200 11005KT P6SM SCT008 OVC045
     FM061600 12009KT P6SM BKN090
      AMD NOT SKED 0602/0612=

USA.gov is the U.S. government's official web portal to all federal, state and local government web resources and services.